sensor_id;sensor_type;location;lat;lon;timestamp;pressure;altitude;pressure_sealevel;temperature;humidity
35307;BME280;21420;52.196;21.416;2023-02-01T00:00:53;98916.97;;;1.33;76.09
35307;BME280;21420;52.196;21.416;2023-02-01T00:03:20;98914.36;;;1.38;76.15
35307;BME280;21420;52.196;21.416;2023-02-01T00:05:57;98910.10;;;1.42;76.23
35307;BME280;21420;52.196;21.416;2023-02-01T00:08:25;98904.21;;;1.47;76.21
35307;BME280;21420;52.196;21.416;2023-02-01T00:13:32;98894.24;;;1.54;76.23
35307;BME280;21420;52.196;21.416;2023-02-01T00:16:12;98895.52;;;1.57;76.30
35307;BME280;21420;52.196;21.416;2023-02-01T00:18:39;98889.91;;;1.58;76.26
35307;BME280;21420;52.196;21.416;2023-02-01T00:21:11;98887.44;;;1.60;76.25
35307;BME280;21420;52.196;21.416;2023-02-01T00:23:38;98885.35;;;1.61;76.29
35307;BME280;21420;52.196;21.416;2023-02-01T00:26:07;98888.55;;;1.62;76.19
35307;BME280;21420;52.196;21.416;2023-02-01T00:28:37;98880.42;;;1.62;76.22
35307;BME280;21420;52.196;21.416;2023-02-01T00:31:04;98880.38;;;1.63;76.18
35307;BME280;21420;52.196;21.416;2023-02-01T00:33:33;98872.16;;;1.64;76.24
35307;BME280;21420;52.196;21.416;2023-02-01T00:36:02;98868.50;;;1.65;76.33
35307;BME280;21420;52.196;21.416;2023-02-01T00:38:31;98878.23;;;1.67;76.41
35307;BME280;21420;52.196;21.416;2023-02-01T00:41:19;98871.17;;;1.70;76.22
35307;BME280;21420;52.196;21.416;2023-02-01T00:43:49;98869.86;;;1.73;76.28
35307;BME280;21420;52.196;21.416;2023-02-01T00:46:18;98868.71;;;1.73;76.20
35307;BME280;21420;52.196;21.416;2023-02-01T00:48:46;98875.98;;;1.74;76.33
35307;BME280;21420;52.196;21.416;2023-02-01T00:51:15;98874.41;;;1.76;76.37
35307;BME280;21420;52.196;21.416;2023-02-01T00:53:42;98871.69;;;1.79;76.38
35307;BME280;21420;52.196;21.416;2023-02-01T00:56:09;98874.48;;;1.79;76.46
35307;BME280;21420;52.196;21.416;2023-02-01T00:58:37;98873.38;;;1.80;76.44
35307;BME280;21420;52.196;21.416;2023-02-01T01:01:16;98873.63;;;1.83;76.41
35307;BME280;21420;52.196;21.416;2023-02-01T01:03:47;98879.20;;;1.84;76.61
35307;BME280;21420;52.196;21.416;2023-02-01T01:06:16;98876.98;;;1.86;76.64
35307;BME280;21420;52.196;21.416;2023-02-01T01:08:43;98880.82;;;1.90;76.72
35307;BME280;21420;52.196;21.416;2023-02-01T01:11:13;98889.77;;;1.95;76.63
35307;BME280;21420;52.196;21.416;2023-02-01T01:13:41;98884.65;;;1.98;76.60
35307;BME280;21420;52.196;21.416;2023-02-01T01:16:10;98890.28;;;2.02;76.74
35307;BME280;21420;52.196;21.416;2023-02-01T01:18:37;98888.49;;;2.04;76.76
35307;BME280;21420;52.196;21.416;2023-02-01T01:21:06;98888.91;;;2.06;76.80
35307;BME280;21420;52.196;21.416;2023-02-01T01:23:34;98882.83;;;2.10;76.91
35307;BME280;21420;52.196;21.416;2023-02-01T01:26:05;98880.25;;;2.13;76.88
35307;BME280;21420;52.196;21.416;2023-02-01T01:28:33;98895.79;;;2.17;76.76
35307;BME280;21420;52.196;21.416;2023-02-01T01:31:01;98897.77;;;2.19;76.77
35307;BME280;21420;52.196;21.416;2023-02-01T01:33:28;98896.92;;;2.21;76.64
35307;BME280;21420;52.196;21.416;2023-02-01T01:35:55;98887.77;;;2.22;76.64
35307;BME280;21420;52.196;21.416;2023-02-01T01:38:22;98895.33;;;2.23;76.80
35307;BME280;21420;52.196;21.416;2023-02-01T01:40:49;98895.17;;;2.23;76.79
35307;BME280;21420;52.196;21.416;2023-02-01T01:43:18;98904.50;;;2.24;76.78
35307;BME280;21420;52.196;21.416;2023-02-01T01:45:50;98904.16;;;2.23;76.80
35307;BME280;21420;52.196;21.416;2023-02-01T01:48:26;98903.41;;;2.24;76.75
35307;BME280;21420;52.196;21.416;2023-02-01T01:51:06;98908.11;;;2.26;76.75
35307;BME280;21420;52.196;21.416;2023-02-01T01:53:43;98897.66;;;2.29;76.82
35307;BME280;21420;52.196;21.416;2023-02-01T01:56:12;98909.30;;;2.32;77.05
35307;BME280;21420;52.196;21.416;2023-02-01T01:58:40;98911.48;;;2.34;77.02
35307;BME280;21420;52.196;21.416;2023-02-01T02:01:07;98916.92;;;2.37;77.02
35307;BME280;21420;52.196;21.416;2023-02-01T02:03:40;98917.66;;;2.38;76.91
35307;BME280;21420;52.196;21.416;2023-02-01T02:06:16;98916.64;;;2.37;77.13
35307;BME280;21420;52.196;21.416;2023-02-01T02:08:45;98925.36;;;2.39;77.06
35307;BME280;21420;52.196;21.416;2023-02-01T02:11:14;98930.05;;;2.37;76.96
35307;BME280;21420;52.196;21.416;2023-02-01T02:13:46;98932.94;;;2.36;77.02
35307;BME280;21420;52.196;21.416;2023-02-01T02:33:41;98926.08;;;2.43;77.10
35307;BME280;21420;52.196;21.416;2023-02-01T02:47:55;98946.49;;;2.47;77.23
35307;BME280;21420;52.196;21.416;2023-02-01T02:50:33;98953.00;;;2.46;77.10
35307;BME280;21420;52.196;21.416;2023-02-01T02:53:38;98958.38;;;2.45;77.20
35307;BME280;21420;52.196;21.416;2023-02-01T02:56:27;98955.71;;;2.44;77.15
35307;BME280;21420;52.196;21.416;2023-02-01T02:59:16;98956.48;;;2.44;77.13
35307;BME280;21420;52.196;21.416;2023-02-01T03:02:05;98965.52;;;2.46;77.26
35307;BME280;21420;52.196;21.416;2023-02-01T03:04:53;98967.02;;;2.47;77.22
35307;BME280;21420;52.196;21.416;2023-02-01T03:10:21;98966.39;;;2.46;77.18
35307;BME280;21420;52.196;21.416;2023-02-01T03:12:52;98973.64;;;2.46;77.07
35307;BME280;21420;52.196;21.416;2023-02-01T03:18:11;98969.52;;;2.47;77.04
35307;BME280;21420;52.196;21.416;2023-02-01T03:20:43;98972.56;;;2.48;77.01
35307;BME280;21420;52.196;21.416;2023-02-01T03:23:14;98979.88;;;2.49;77.09
35307;BME280;21420;52.196;21.416;2023-02-01T03:25:43;98979.98;;;2.50;77.06
35307;BME280;21420;52.196;21.416;2023-02-01T03:28:11;98975.05;;;2.48;77.07
35307;BME280;21420;52.196;21.416;2023-02-01T03:30:40;98975.58;;;2.47;76.96
35307;BME280;21420;52.196;21.416;2023-02-01T03:33:18;98975.81;;;2.48;77.03
35307;BME280;21420;52.196;21.416;2023-02-01T03:35:57;98975.55;;;2.49;76.95
35307;BME280;21420;52.196;21.416;2023-02-01T03:41:43;98988.85;;;2.49;76.95
35307;BME280;21420;52.196;21.416;2023-02-01T03:47:09;98979.81;;;2.44;76.89
35307;BME280;21420;52.196;21.416;2023-02-01T03:49:43;98976.00;;;2.45;77.00
35307;BME280;21420;52.196;21.416;2023-02-01T03:52:20;98987.02;;;2.47;76.89
35307;BME280;21420;52.196;21.416;2023-02-01T03:54:50;98988.33;;;2.47;77.02
35307;BME280;21420;52.196;21.416;2023-02-01T03:57:22;98990.63;;;2.48;76.97
35307;BME280;21420;52.196;21.416;2023-02-01T03:59:50;98981.59;;;2.48;76.83
35307;BME280;21420;52.196;21.416;2023-02-01T04:02:18;98992.55;;;2.45;76.86
35307;BME280;21420;52.196;21.416;2023-02-01T04:04:45;98996.74;;;2.40;76.73
35307;BME280;21420;52.196;21.416;2023-02-01T04:07:14;98997.95;;;2.38;76.71
35307;BME280;21420;52.196;21.416;2023-02-01T04:09:40;98994.06;;;2.37;76.62
35307;BME280;21420;52.196;21.416;2023-02-01T04:12:07;99002.14;;;2.37;76.73
35307;BME280;21420;52.196;21.416;2023-02-01T04:14:34;99001.28;;;2.36;76.90
35307;BME280;21420;52.196;21.416;2023-02-01T04:17:01;99004.73;;;2.36;76.97
35307;BME280;21420;52.196;21.416;2023-02-01T04:19:28;99000.84;;;2.37;76.90
35307;BME280;21420;52.196;21.416;2023-02-01T04:21:55;98996.96;;;2.37;76.88
35307;BME280;21420;52.196;21.416;2023-02-01T04:24:22;98995.94;;;2.34;76.90
35307;BME280;21420;52.196;21.416;2023-02-01T04:26:49;98993.35;;;2.32;76.85
35307;BME280;21420;52.196;21.416;2023-02-01T04:29:16;98994.02;;;2.30;76.83
35307;BME280;21420;52.196;21.416;2023-02-01T04:31:42;99003.77;;;2.27;76.75
35307;BME280;21420;52.196;21.416;2023-02-01T04:34:09;98999.02;;;2.24;76.74
35307;BME280;21420;52.196;21.416;2023-02-01T04:36:36;99004.23;;;2.25;76.78
35307;BME280;21420;52.196;21.416;2023-02-01T04:39:03;99006.58;;;2.25;76.66
35307;BME280;21420;52.196;21.416;2023-02-01T04:41:30;99008.52;;;2.25;76.79
35307;BME280;21420;52.196;21.416;2023-02-01T04:45:32;99004.67;;;2.29;76.86
35307;BME280;21420;52.196;21.416;2023-02-01T04:47:59;99015.15;;;2.29;76.85
35307;BME280;21420;52.196;21.416;2023-02-01T04:50:26;99008.67;;;2.31;76.92
35307;BME280;21420;52.196;21.416;2023-02-01T04:52:53;99014.17;;;2.32;77.01
35307;BME280;21420;52.196;21.416;2023-02-01T04:55:20;99017.70;;;2.33;76.94
35307;BME280;21420;52.196;21.416;2023-02-01T04:57:47;99018.05;;;2.34;77.05
35307;BME280;21420;52.196;21.416;2023-02-01T05:00:15;99023.39;;;2.36;77.13
35307;BME280;21420;52.196;21.416;2023-02-01T05:02:42;99018.62;;;2.39;77.04
35307;BME280;21420;52.196;21.416;2023-02-01T05:05:09;99017.52;;;2.41;77.06
35307;BME280;21420;52.196;21.416;2023-02-01T05:07:36;99017.14;;;2.41;77.12
35307;BME280;21420;52.196;21.416;2023-02-01T05:10:03;99029.48;;;2.42;77.04
35307;BME280;21420;52.196;21.416;2023-02-01T05:12:30;99031.65;;;2.44;77.14
35307;BME280;21420;52.196;21.416;2023-02-01T05:15:32;99031.94;;;2.45;77.13
35307;BME280;21420;52.196;21.416;2023-02-01T05:18:00;99026.29;;;2.48;77.15
35307;BME280;21420;52.196;21.416;2023-02-01T05:20:27;99023.85;;;2.52;77.07
35307;BME280;21420;52.196;21.416;2023-02-01T05:22:53;99026.78;;;2.54;77.01
35307;BME280;21420;52.196;21.416;2023-02-01T05:25:20;99019.85;;;2.56;77.00
35307;BME280;21420;52.196;21.416;2023-02-01T05:27:47;99030.84;;;2.56;77.05
35307;BME280;21420;52.196;21.416;2023-02-01T05:30:14;99025.70;;;2.57;76.96
35307;BME280;21420;52.196;21.416;2023-02-01T05:32:41;99022.77;;;2.57;77.00
35307;BME280;21420;52.196;21.416;2023-02-01T05:35:08;99022.59;;;2.57;77.02
35307;BME280;21420;52.196;21.416;2023-02-01T05:37:35;99019.12;;;2.57;77.05
35307;BME280;21420;52.196;21.416;2023-02-01T05:40:03;99022.27;;;2.56;77.02
35307;BME280;21420;52.196;21.416;2023-02-01T05:42:30;99024.40;;;2.56;77.01
35307;BME280;21420;52.196;21.416;2023-02-01T05:44:57;99025.70;;;2.56;76.89
35307;BME280;21420;52.196;21.416;2023-02-01T05:47:24;99010.00;;;2.56;76.99
35307;BME280;21420;52.196;21.416;2023-02-01T05:49:51;99021.86;;;2.57;76.97
35307;BME280;21420;52.196;21.416;2023-02-01T05:52:18;99028.63;;;2.57;77.19
35307;BME280;21420;52.196;21.416;2023-02-01T05:54:46;99024.88;;;2.56;77.13
35307;BME280;21420;52.196;21.416;2023-02-01T05:57:16;99019.33;;;2.57;77.11
35307;BME280;21420;52.196;21.416;2023-02-01T05:59:43;99021.28;;;2.57;76.98
35307;BME280;21420;52.196;21.416;2023-02-01T06:02:15;99023.81;;;2.57;76.99
35307;BME280;21420;52.196;21.416;2023-02-01T06:04:42;99018.34;;;2.58;77.09
35307;BME280;21420;52.196;21.416;2023-02-01T06:07:09;99015.02;;;2.57;76.91
35307;BME280;21420;52.196;21.416;2023-02-01T06:09:37;99025.64;;;2.54;76.90
35307;BME280;21420;52.196;21.416;2023-02-01T06:12:04;99023.31;;;2.54;76.82
35307;BME280;21420;52.196;21.416;2023-02-01T06:14:31;99023.23;;;2.55;76.97
35307;BME280;21420;52.196;21.416;2023-02-01T06:16:58;99015.65;;;2.55;76.92
35307;BME280;21420;52.196;21.416;2023-02-01T06:19:26;99020.77;;;2.56;76.89
35307;BME280;21420;52.196;21.416;2023-02-01T06:21:53;99017.97;;;2.57;77.00
35307;BME280;21420;52.196;21.416;2023-02-01T06:24:19;99012.67;;;2.59;76.91
35307;BME280;21420;52.196;21.416;2023-02-01T06:26:46;99014.90;;;2.60;76.88
35307;BME280;21420;52.196;21.416;2023-02-01T06:29:13;99020.66;;;2.61;76.81
35307;BME280;21420;52.196;21.416;2023-02-01T06:31:40;99021.70;;;2.62;76.92
35307;BME280;21420;52.196;21.416;2023-02-01T06:34:09;99020.21;;;2.62;76.76
35307;BME280;21420;52.196;21.416;2023-02-01T06:36:36;99013.66;;;2.62;76.79
35307;BME280;21420;52.196;21.416;2023-02-01T06:39:03;99004.33;;;2.64;76.82
35307;BME280;21420;52.196;21.416;2023-02-01T06:41:30;99007.98;;;2.64;76.78
35307;BME280;21420;52.196;21.416;2023-02-01T06:43:57;99000.88;;;2.66;76.80
35307;BME280;21420;52.196;21.416;2023-02-01T06:46:24;98999.86;;;2.66;76.83
35307;BME280;21420;52.196;21.416;2023-02-01T06:48:51;99004.98;;;2.66;76.95
35307;BME280;21420;52.196;21.416;2023-02-01T06:51:20;99007.27;;;2.69;76.96
35307;BME280;21420;52.196;21.416;2023-02-01T06:53:48;98999.94;;;2.73;76.87
35307;BME280;21420;52.196;21.416;2023-02-01T06:56:15;99004.92;;;2.74;76.85
35307;BME280;21420;52.196;21.416;2023-02-01T06:58:42;99008.52;;;2.73;76.76
35307;BME280;21420;52.196;21.416;2023-02-01T07:01:10;99002.04;;;2.73;76.86
35307;BME280;21420;52.196;21.416;2023-02-01T07:03:37;99004.81;;;2.75;76.92
35307;BME280;21420;52.196;21.416;2023-02-01T07:06:05;99010.75;;;2.80;76.87
35307;BME280;21420;52.196;21.416;2023-02-01T07:08:35;99001.76;;;2.80;76.65
35307;BME280;21420;52.196;21.416;2023-02-01T07:11:10;99004.01;;;2.81;76.75
35307;BME280;21420;52.196;21.416;2023-02-01T07:13:38;99003.92;;;2.84;76.80
35307;BME280;21420;52.196;21.416;2023-02-01T07:16:09;98997.23;;;2.86;76.80
35307;BME280;21420;52.196;21.416;2023-02-01T07:18:37;99005.05;;;2.88;76.80
35307;BME280;21420;52.196;21.416;2023-02-01T07:21:04;99001.03;;;2.90;76.84
35307;BME280;21420;52.196;21.416;2023-02-01T07:23:31;99001.41;;;2.90;76.60
35307;BME280;21420;52.196;21.416;2023-02-01T07:26:01;99009.46;;;2.88;76.65
35307;BME280;21420;52.196;21.416;2023-02-01T07:28:30;99006.65;;;2.86;76.58
35307;BME280;21420;52.196;21.416;2023-02-01T07:31:04;99006.11;;;2.86;76.59
35307;BME280;21420;52.196;21.416;2023-02-01T07:33:32;99025.48;;;2.84;76.62
35307;BME280;21420;52.196;21.416;2023-02-01T07:36:02;99022.02;;;2.81;76.63
35307;BME280;21420;52.196;21.416;2023-02-01T07:38:29;99012.63;;;2.80;76.64
35307;BME280;21420;52.196;21.416;2023-02-01T07:41:01;99007.98;;;2.80;76.58
35307;BME280;21420;52.196;21.416;2023-02-01T07:43:28;98999.66;;;2.84;76.72
35307;BME280;21420;52.196;21.416;2023-02-01T07:45:56;99009.35;;;2.85;76.56
35307;BME280;21420;52.196;21.416;2023-02-01T07:48:24;99008.13;;;2.83;76.63
35307;BME280;21420;52.196;21.416;2023-02-01T07:50:59;99002.10;;;2.83;76.65
35307;BME280;21420;52.196;21.416;2023-02-01T07:53:28;99001.95;;;2.86;76.67
35307;BME280;21420;52.196;21.416;2023-02-01T07:55:55;99000.96;;;2.89;76.59
35307;BME280;21420;52.196;21.416;2023-02-01T07:58:25;99002.49;;;2.92;76.65
35307;BME280;21420;52.196;21.416;2023-02-01T08:00:53;99008.30;;;2.96;76.80
35307;BME280;21420;52.196;21.416;2023-02-01T08:03:53;99004.55;;;3.00;76.77
35307;BME280;21420;52.196;21.416;2023-02-01T08:06:22;99009.55;;;3.03;76.79
35307;BME280;21420;52.196;21.416;2023-02-01T08:08:52;99009.74;;;3.06;76.70
35307;BME280;21420;52.196;21.416;2023-02-01T08:11:20;99017.67;;;3.07;76.74
35307;BME280;21420;52.196;21.416;2023-02-01T08:13:48;99007.52;;;3.09;76.72
35307;BME280;21420;52.196;21.416;2023-02-01T08:16:16;99014.48;;;3.11;76.70
35307;BME280;21420;52.196;21.416;2023-02-01T08:18:45;99001.84;;;3.14;76.67
35307;BME280;21420;52.196;21.416;2023-02-01T08:21:15;99004.87;;;3.16;76.53
35307;BME280;21420;52.196;21.416;2023-02-01T08:23:43;99008.46;;;3.17;76.55
35307;BME280;21420;52.196;21.416;2023-02-01T08:26:16;99002.90;;;3.17;76.42
35307;BME280;21420;52.196;21.416;2023-02-01T08:28:49;99005.66;;;3.18;76.48
35307;BME280;21420;52.196;21.416;2023-02-01T08:31:18;99008.17;;;3.19;76.42
35307;BME280;21420;52.196;21.416;2023-02-01T08:33:52;99012.83;;;3.18;76.36
35307;BME280;21420;52.196;21.416;2023-02-01T08:36:22;99000.56;;;3.17;76.55
35307;BME280;21420;52.196;21.416;2023-02-01T08:38:50;99010.79;;;3.17;76.45
35307;BME280;21420;52.196;21.416;2023-02-01T08:41:23;99022.55;;;3.19;76.47
35307;BME280;21420;52.196;21.416;2023-02-01T08:43:51;99027.34;;;3.22;76.57
35307;BME280;21420;52.196;21.416;2023-02-01T08:46:20;99013.95;;;3.26;76.49
35307;BME280;21420;52.196;21.416;2023-02-01T08:48:47;99019.47;;;3.28;76.50
35307;BME280;21420;52.196;21.416;2023-02-01T08:51:17;99016.62;;;3.30;76.53
35307;BME280;21420;52.196;21.416;2023-02-01T08:53:44;99019.64;;;3.32;76.56
35307;BME280;21420;52.196;21.416;2023-02-01T08:56:12;99016.79;;;3.29;76.47
35307;BME280;21420;52.196;21.416;2023-02-01T08:58:40;99012.04;;;3.26;76.41
35307;BME280;21420;52.196;21.416;2023-02-01T09:01:13;99012.39;;;3.27;76.44
35307;BME280;21420;52.196;21.416;2023-02-01T09:03:41;99015.61;;;3.28;76.41
35307;BME280;21420;52.196;21.416;2023-02-01T09:06:11;99016.67;;;3.28;76.42
35307;BME280;21420;52.196;21.416;2023-02-01T09:08:39;99017.59;;;3.26;76.38
35307;BME280;21420;52.196;21.416;2023-02-01T09:11:11;99025.99;;;3.25;76.36
35307;BME280;21420;52.196;21.416;2023-02-01T09:13:38;99028.25;;;3.22;76.24
35307;BME280;21420;52.196;21.416;2023-02-01T09:16:05;99026.73;;;3.19;76.33
35307;BME280;21420;52.196;21.416;2023-02-01T09:18:33;99017.95;;;3.18;76.28
35307;BME280;21420;52.196;21.416;2023-02-01T09:21:04;99022.55;;;3.10;76.16
35307;BME280;21420;52.196;21.416;2023-02-01T09:23:32;99027.21;;;3.05;76.17
35307;BME280;21420;52.196;21.416;2023-02-01T09:26:00;99022.05;;;3.04;76.20
35307;BME280;21420;52.196;21.416;2023-02-01T09:28:27;99024.23;;;3.06;76.13
35307;BME280;21420;52.196;21.416;2023-02-01T09:30:59;99021.33;;;3.05;76.20
35307;BME280;21420;52.196;21.416;2023-02-01T09:33:27;99017.31;;;3.04;76.24
35307;BME280;21420;52.196;21.416;2023-02-01T09:35:59;99021.45;;;3.05;76.40
35307;BME280;21420;52.196;21.416;2023-02-01T09:38:27;99021.64;;;3.07;76.38
35307;BME280;21420;52.196;21.416;2023-02-01T09:40:57;99009.75;;;3.09;76.54
35307;BME280;21420;52.196;21.416;2023-02-01T09:43:40;99010.00;;;3.11;76.53
35307;BME280;21420;52.196;21.416;2023-02-01T09:46:20;99003.08;;;3.18;76.58
35307;BME280;21420;52.196;21.416;2023-02-01T09:48:49;98999.29;;;3.28;76.66
35307;BME280;21420;52.196;21.416;2023-02-01T09:51:26;98996.81;;;3.41;76.86
35307;BME280;21420;52.196;21.416;2023-02-01T09:54:02;98991.48;;;3.50;76.77
35307;BME280;21420;52.196;21.416;2023-02-01T09:56:38;98986.23;;;3.58;76.83
35307;BME280;21420;52.196;21.416;2023-02-01T10:01:54;98997.43;;;3.74;76.71
35307;BME280;21420;52.196;21.416;2023-02-01T10:04:21;98996.55;;;3.81;76.69
35307;BME280;21420;52.196;21.416;2023-02-01T10:07:35;98985.91;;;3.88;76.64
35307;BME280;21420;52.196;21.416;2023-02-01T10:09:57;98990.26;;;3.92;76.61
35307;BME280;21420;52.196;21.416;2023-02-01T10:21:14;99000.24;;;3.97;76.51
35307;BME280;21420;52.196;21.416;2023-02-01T10:26:27;98992.42;;;3.98;76.49
35307;BME280;21420;52.196;21.416;2023-02-01T10:29:04;99003.81;;;3.98;76.44
35307;BME280;21420;52.196;21.416;2023-02-01T10:31:35;99002.38;;;3.95;76.36
35307;BME280;21420;52.196;21.416;2023-02-01T10:34:33;98999.05;;;3.93;76.43
35307;BME280;21420;52.196;21.416;2023-02-01T10:37:13;98992.98;;;3.92;76.38
35307;BME280;21420;52.196;21.416;2023-02-01T10:39:47;98998.41;;;3.91;76.35
35307;BME280;21420;52.196;21.416;2023-02-01T10:42:20;98985.84;;;3.89;76.34
35307;BME280;21420;52.196;21.416;2023-02-01T10:44:48;98993.98;;;3.96;76.57
35307;BME280;21420;52.196;21.416;2023-02-01T10:47:16;98997.55;;;4.02;76.39
35307;BME280;21420;52.196;21.416;2023-02-01T10:50:06;98989.04;;;4.04;76.26
35307;BME280;21420;52.196;21.416;2023-02-01T10:52:49;98987.05;;;4.03;76.36
35307;BME280;21420;52.196;21.416;2023-02-01T10:55:31;98997.67;;;4.03;76.23
35307;BME280;21420;52.196;21.416;2023-02-01T10:58:02;98998.12;;;4.02;76.19
35307;BME280;21420;52.196;21.416;2023-02-01T11:00:41;98996.55;;;4.00;76.09
35307;BME280;21420;52.196;21.416;2023-02-01T11:05:59;98998.40;;;3.96;76.11
35307;BME280;21420;52.196;21.416;2023-02-01T11:08:26;99002.45;;;3.96;76.18
35307;BME280;21420;52.196;21.416;2023-02-01T11:11:02;99001.99;;;3.97;76.23
35307;BME280;21420;52.196;21.416;2023-02-01T11:13:37;98989.02;;;3.98;76.18
35307;BME280;21420;52.196;21.416;2023-02-01T11:16:06;98997.08;;;4.00;76.21
35307;BME280;21420;52.196;21.416;2023-02-01T11:18:37;98991.86;;;4.05;76.14
35307;BME280;21420;52.196;21.416;2023-02-01T11:21:06;98982.35;;;4.07;76.20
35307;BME280;21420;52.196;21.416;2023-02-01T11:23:39;98975.20;;;4.12;76.24
35307;BME280;21420;52.196;21.416;2023-02-01T11:26:21;98969.57;;;4.20;76.29
35307;BME280;21420;52.196;21.416;2023-02-01T11:28:59;98984.39;;;4.31;76.39
35307;BME280;21420;52.196;21.416;2023-02-01T11:31:32;98986.70;;;4.36;76.23
35307;BME280;21420;52.196;21.416;2023-02-01T11:34:25;98981.52;;;4.37;76.19
35307;BME280;21420;52.196;21.416;2023-02-01T11:36:56;98988.67;;;4.35;76.17
35307;BME280;21420;52.196;21.416;2023-02-01T11:39:28;98974.56;;;4.33;75.97
35307;BME280;21420;52.196;21.416;2023-02-01T11:42:13;98983.30;;;4.27;75.89
35307;BME280;21420;52.196;21.416;2023-02-01T11:44:45;98984.29;;;4.21;75.81
35307;BME280;21420;52.196;21.416;2023-02-01T11:49:50;98976.40;;;4.19;75.83
35307;BME280;21420;52.196;21.416;2023-02-01T12:11:43;98963.19;;;4.15;75.82
35307;BME280;21420;52.196;21.416;2023-02-01T12:38:21;98948.13;;;4.34;75.89
35307;BME280;21420;52.196;21.416;2023-02-01T12:46:32;98955.59;;;4.33;75.74
35307;BME280;21420;52.196;21.416;2023-02-01T12:49:05;98961.63;;;4.31;75.71
35307;BME280;21420;52.196;21.416;2023-02-01T12:51:38;98958.63;;;4.28;75.72
35307;BME280;21420;52.196;21.416;2023-02-01T12:54:18;98951.81;;;4.24;75.59
35307;BME280;21420;52.196;21.416;2023-02-01T12:56:54;98959.04;;;4.22;75.65
35307;BME280;21420;52.196;21.416;2023-02-01T12:59:34;98960.37;;;4.23;75.72
35307;BME280;21420;52.196;21.416;2023-02-01T13:02:15;98951.75;;;4.26;75.71
35307;BME280;21420;52.196;21.416;2023-02-01T13:05:15;98961.57;;;4.26;75.48
35307;BME280;21420;52.196;21.416;2023-02-01T13:10:36;98963.31;;;4.21;75.62
35307;BME280;21420;52.196;21.416;2023-02-01T13:18:19;98960.88;;;4.28;75.80
35307;BME280;21420;52.196;21.416;2023-02-01T13:20:51;98964.17;;;4.31;75.72
35307;BME280;21420;52.196;21.416;2023-02-01T13:23:34;98960.23;;;4.35;75.67
35307;BME280;21420;52.196;21.416;2023-02-01T13:26:03;98972.60;;;4.37;75.79
35307;BME280;21420;52.196;21.416;2023-02-01T13:28:46;98968.36;;;4.37;75.73
35307;BME280;21420;52.196;21.416;2023-02-01T13:37:23;98975.13;;;4.48;75.79
35307;BME280;21420;52.196;21.416;2023-02-01T13:42:33;98982.31;;;4.53;75.76
35307;BME280;21420;52.196;21.416;2023-02-01T13:45:05;98985.64;;;4.53;75.74
35307;BME280;21420;52.196;21.416;2023-02-01T13:47:39;98981.37;;;4.51;75.74
35307;BME280;21420;52.196;21.416;2023-02-01T13:50:38;98981.85;;;4.46;75.68
35307;BME280;21420;52.196;21.416;2023-02-01T13:55:39;98983.94;;;4.37;75.55
35307;BME280;21420;52.196;21.416;2023-02-01T14:09:32;98980.52;;;4.23;75.64
35307;BME280;21420;52.196;21.416;2023-02-01T14:15:26;98981.10;;;4.22;75.73
35307;BME280;21420;52.196;21.416;2023-02-01T14:17:54;98971.08;;;4.22;75.76
35307;BME280;21420;52.196;21.416;2023-02-01T14:23:16;98963.19;;;4.20;75.65
35307;BME280;21420;52.196;21.416;2023-02-01T14:25:44;98965.45;;;4.20;75.56
35307;BME280;21420;52.196;21.416;2023-02-01T14:28:25;98964.95;;;4.17;75.53
35307;BME280;21420;52.196;21.416;2023-02-01T14:30:54;98958.33;;;4.16;75.48
35307;BME280;21420;52.196;21.416;2023-02-01T14:33:25;98965.23;;;4.14;75.50
35307;BME280;21420;52.196;21.416;2023-02-01T14:36:11;98963.69;;;4.10;75.54
35307;BME280;21420;52.196;21.416;2023-02-01T14:38:47;98962.46;;;4.07;75.61
35307;BME280;21420;52.196;21.416;2023-02-01T14:41:26;98954.02;;;4.07;75.71
35307;BME280;21420;52.196;21.416;2023-02-01T14:52:19;98964.41;;;4.00;75.35
35307;BME280;21420;52.196;21.416;2023-02-01T14:54:54;98967.95;;;3.95;75.41
35307;BME280;21420;52.196;21.416;2023-02-01T14:57:25;98969.10;;;3.88;75.46
35307;BME280;21420;52.196;21.416;2023-02-01T15:00:00;98970.26;;;3.81;75.36
35307;BME280;21420;52.196;21.416;2023-02-01T15:02:35;98965.66;;;3.75;75.36
35307;BME280;21420;52.196;21.416;2023-02-01T15:05:27;98962.02;;;3.70;75.38
35307;BME280;21420;52.196;21.416;2023-02-01T15:08:25;98965.38;;;3.69;75.49
35307;BME280;21420;52.196;21.416;2023-02-01T15:10:54;98973.36;;;3.70;75.58
35307;BME280;21420;52.196;21.416;2023-02-01T15:13:25;98985.01;;;3.71;75.53
35307;BME280;21420;52.196;21.416;2023-02-01T15:16:11;98980.92;;;3.73;75.52
35307;BME280;21420;52.196;21.416;2023-02-01T15:18:39;98984.81;;;3.76;75.67
35307;BME280;21420;52.196;21.416;2023-02-01T15:21:23;98983.08;;;3.77;75.69
35307;BME280;21420;52.196;21.416;2023-02-01T15:24:20;98977.27;;;3.79;75.68
35307;BME280;21420;52.196;21.416;2023-02-01T15:26:47;98972.62;;;3.81;75.64
35307;BME280;21420;52.196;21.416;2023-02-01T15:29:15;98974.05;;;3.80;75.59
35307;BME280;21420;52.196;21.416;2023-02-01T15:31:45;98975.54;;;3.78;75.62
35307;BME280;21420;52.196;21.416;2023-02-01T15:34:17;98978.46;;;3.78;75.65
35307;BME280;21420;52.196;21.416;2023-02-01T15:36:45;98985.36;;;3.80;75.72
35307;BME280;21420;52.196;21.416;2023-02-01T15:39:28;98986.27;;;3.81;75.64
35307;BME280;21420;52.196;21.416;2023-02-01T15:42:01;98991.67;;;3.82;75.67
35307;BME280;21420;52.196;21.416;2023-02-01T15:44:43;98981.16;;;3.87;75.63
35307;BME280;21420;52.196;21.416;2023-02-01T15:47:18;98981.95;;;3.87;75.64
35307;BME280;21420;52.196;21.416;2023-02-01T15:49:51;98986.08;;;3.86;75.62
35307;BME280;21420;52.196;21.416;2023-02-01T15:52:36;98991.55;;;3.85;75.59
35307;BME280;21420;52.196;21.416;2023-02-01T15:55:17;98990.16;;;3.87;75.64
35307;BME280;21420;52.196;21.416;2023-02-01T15:57:45;98993.36;;;3.86;75.70
35307;BME280;21420;52.196;21.416;2023-02-01T16:02:58;98992.67;;;3.86;75.57
35307;BME280;21420;52.196;21.416;2023-02-01T16:08:00;98989.33;;;3.84;75.58